Seibert, Colorado
Current Conditions -  °F | °C
As of 3:53 PM on Saturday 20 Dec 2014 (Local Time) from KITR Reporting Station
Clear Clear  
Wind Chill: 42°   Ceiling: Unl
Heat Index: 46°   Visibility: 10mi
Dew Point: 30°   Wind: 7mph
Humidity: 54%   Direction: 90°E
Pressure: 29.96"   Gusts: NA
Location:  39.3°N, 102.87°W
Report Text: KITR 202253Z AUTO 09006KT 10SM CLR 08/M01 A2996 RMK AO2 SLP153 T00781011
Loading
Personal Weather Stations






























Interactive Weather Map New forecast layout! Learn more

10-Day Weather Forecast

Advertisements
Track Severe Weather on mobile